Terminal Aerodrome Forecast
Issued by NWS

Home | Current Version | Previous Version | Graphics & Text | Print | Product List | Glossary On
Versions: 1 2 3 4 5 6 7 8 9 10 11 12 13 14 15
000
FTUS43 KTOP 301730
TAFMHK
TAF
KMHK 301730Z 3018/0118 29012G18KT P6SM SCT040
      TEMPO 3018/3022 BKN030
     FM302300 27004KT P6SM SCT120=

USA.gov is the U.S. government's official web portal to all federal, state and local government web resources and services.